Time;durP1;ratioP1;P1;durP2;ratioP2;P2;SDS_P1;SDS_P2;PMS_P1;PMS_P2;Temp;Humidity;BMP_temperature;BMP_pressure;BME280_temperature;BME280_humidity;BME280_pressure;Samples;Min_cycle;Max_cycle;Signal;HPM_P1;HPM_P2
2023/01/30 04:57:12;;;;;;;21.45;12.00;;;;;;;;;;5176129;23;20253;-72
2023/01/30 04:59:39;;;;;;;17.40;12.15;;;;;;;;;;4977864;28;20556;-72
2023/01/30 05:02:06;;;;;;;20.50;13.52;;;;;;;;;;4977622;28;20237;-71
2023/01/30 05:04:33;;;;;;;28.50;16.27;;;;;;;;;;4977227;28;20203;-71
2023/01/30 05:07:00;;;;;;;22.67;14.13;;;;;;;;;;4977594;28;20223;-69
2023/01/30 05:09:27;;;;;;;24.42;13.98;;;;;;;;;;4977964;28;20226;-70
2023/01/30 05:11:54;;;;;;;26.52;14.70;;;;;;;;;;4977561;28;20211;-73
2023/01/30 05:14:23;;;;;;;18.67;12.40;;;;;;;;;;4984389;28;20215;-72
2023/01/30 05:16:50;;;;;;;27.80;13.77;;;;;;;;;;4996918;28;20230;-72
2023/01/30 05:19:17;;;;;;;32.63;14.65;;;;;;;;;;4995010;28;20227;-72
2023/01/30 05:21:44;;;;;;;22.50;13.13;;;;;;;;;;4990336;28;20214;-72
2023/01/30 05:24:11;;;;;;;18.40;12.45;;;;;;;;;;4982220;28;20207;-73
2023/01/30 05:26:38;;;;;;;17.42;11.50;;;;;;;;;;4977060;28;20230;-72
2023/01/30 05:29:05;;;;;;;21.60;13.13;;;;;;;;;;4976931;28;20622;-72
2023/01/30 05:31:34;;;;;;;19.88;12.55;;;;;;;;;;4977171;28;20639;-72
2023/01/30 05:34:01;;;;;;;41.80;21.17;;;;;;;;;;4977657;28;20203;-72
2023/01/30 05:36:28;;;;;;;42.20;22.58;;;;;;;;;;4977398;28;20227;-70
2023/01/30 05:38:55;;;;;;;25.15;14.05;;;;;;;;;;4977479;28;20199;-71
2023/01/30 05:41:22;;;;;;;24.35;14.07;;;;;;;;;;4976983;28;20667;-71
2023/01/30 05:43:50;;;;;;;22.10;12.68;;;;;;;;;;4976988;28;20254;-70
2023/01/30 05:46:17;;;;;;;21.58;12.48;;;;;;;;;;4976766;28;20255;-70
2023/01/30 05:48:45;;;;;;;19.35;11.90;;;;;;;;;;4976799;28;20219;-70
2023/01/30 05:51:16;;;;;;;20.98;12.18;;;;;;;;;;4975812;28;20199;-72
2023/01/30 05:53:43;;;;;;;21.25;12.88;;;;;;;;;;4976817;28;20207;-72
2023/01/30 05:56:10;;;;;;;20.70;12.95;;;;;;;;;;4976573;28;20230;-70
2023/01/30 05:58:37;;;;;;;28.50;15.60;;;;;;;;;;4976456;28;20262;-72
2023/01/30 06:01:07;;;;;;;25.00;14.90;;;;;;;;;;4976509;28;20204;-72
2023/01/30 06:03:34;;;;;;;24.60;13.70;;;;;;;;;;4976874;28;20210;-72
2023/01/30 06:06:03;;;;;;;24.95;13.80;;;;;;;;;;4976133;28;20729;-73
2023/01/30 06:08:30;;;;;;;21.65;14.00;;;;;;;;;;4976430;28;20581;-72
2023/01/30 06:11:00;;;;;;;21.05;13.43;;;;;;;;;;4976530;28;20667;-73
2023/01/30 06:13:27;;;;;;;22.95;13.25;;;;;;;;;;4976316;28;20235;-71
2023/01/30 06:15:54;;;;;;;21.75;12.40;;;;;;;;;;4976441;28;20222;-71
2023/01/30 06:18:21;;;;;;;21.70;13.23;;;;;;;;;;4976456;28;20211;-72
2023/01/30 06:20:48;;;;;;;22.05;13.40;;;;;;;;;;4976325;28;20218;-72
2023/01/30 06:23:17;;;;;;;20.33;12.77;;;;;;;;;;4976138;28;20709;-72
2023/01/30 06:25:44;;;;;;;18.50;12.48;;;;;;;;;;4976460;28;20230;-72
2023/01/30 06:28:11;;;;;;;18.95;11.73;;;;;;;;;;4976339;28;20231;-72
2023/01/30 06:30:38;;;;;;;20.90;11.43;;;;;;;;;;4975951;28;20574;-72
2023/01/30 06:33:06;;;;;;;19.85;13.13;;;;;;;;;;4975796;28;20204;-72
2023/01/30 06:35:33;;;;;;;24.63;15.10;;;;;;;;;;4975751;28;20219;-72
2023/01/30 06:38:00;;;;;;;24.58;13.50;;;;;;;;;;4975831;28;20199;-72
2023/01/30 06:40:28;;;;;;;23.83;12.60;;;;;;;;;;4975461;28;20206;-71
2023/01/30 06:42:55;;;;;;;21.02;11.77;;;;;;;;;;4975432;28;20275;-71
2023/01/30 06:45:22;;;;;;;16.60;11.45;;;;;;;;;;4975412;28;20230;-71
2023/01/30 06:47:50;;;;;;;23.02;13.23;;;;;;;;;;4975296;28;20211;-71
2023/01/30 06:50:18;;;;;;;21.33;11.95;;;;;;;;;;4975751;28;20227;-71
2023/01/30 06:52:45;;;;;;;26.13;16.05;;;;;;;;;;4975072;28;20262;-71
2023/01/30 06:55:14;;;;;;;23.20;16.05;;;;;;;;;;4975246;28;20250;-71
2023/01/30 06:57:43;;;;;;;23.52;14.90;;;;;;;;;;4974960;28;20203;-71
2023/01/30 07:00:13;;;;;;;28.23;13.55;;;;;;;;;;4974597;28;20207;-71
2023/01/30 07:02:40;;;;;;;27.20;13.07;;;;;;;;;;4974243;28;20661;-71
2023/01/30 07:05:08;;;;;;;24.98;13.15;;;;;;;;;;4974678;28;20207;-71
2023/01/30 07:07:35;;;;;;;20.63;13.20;;;;;;;;;;4974513;28;20592;-71
2023/01/30 07:10:03;;;;;;;23.95;15.02;;;;;;;;;;4974474;28;20560;-71
2023/01/30 07:12:30;;;;;;;21.83;13.77;;;;;;;;;;4974815;28;20207;-71
2023/01/30 07:14:58;;;;;;;24.40;13.48;;;;;;;;;;4974123;28;20726;-71
2023/01/30 07:17:25;;;;;;;19.48;13.18;;;;;;;;;;4974472;28;20282;-71
2023/01/30 07:19:52;;;;;;;18.75;12.60;;;;;;;;;;4974184;28;20611;-71
2023/01/30 07:22:19;;;;;;;20.73;13.75;;;;;;;;;;4974431;28;20211;-71
2023/01/30 07:24:46;;;;;;;24.48;14.55;;;;;;;;;;4974464;28;20215;-71
2023/01/30 07:27:13;;;;;;;22.25;13.40;;;;;;;;;;4974128;28;20733;-72
2023/01/30 07:29:41;;;;;;;20.98;13.23;;;;;;;;;;4974298;28;20583;-71
2023/01/30 07:32:14;;;;;;;26.42;15.02;;;;;;;;;;4974422;28;20575;-71
2023/01/30 07:34:41;;;;;;;20.75;11.98;;;;;;;;;;4974905;28;20219;-71
2023/01/30 07:37:08;;;;;;;17.88;11.98;;;;;;;;;;4973831;28;20714;-71
2023/01/30 07:39:35;;;;;;;26.13;12.80;;;;;;;;;;4974389;28;20207;-71
2023/01/30 07:42:02;;;;;;;19.88;12.68;;;;;;;;;;4974270;28;20222;-71
2023/01/30 07:44:29;;;;;;;22.50;13.25;;;;;;;;;;4974048;28;20214;-71
2023/01/30 07:46:56;;;;;;;23.98;13.07;;;;;;;;;;4974083;28;20227;-71
2023/01/30 07:49:25;;;;;;;19.65;12.63;;;;;;;;;;4974135;28;20223;-71
2023/01/30 07:51:52;;;;;;;19.17;12.13;;;;;;;;;;4974234;28;20210;-71
2023/01/30 07:54:19;;;;;;;19.95;12.10;;;;;;;;;;4973907;28;20210;-71
2023/01/30 07:56:46;;;;;;;17.70;11.40;;;;;;;;;;4974212;28;20223;-71
2023/01/30 07:59:13;;;;;;;15.95;11.20;;;;;;;;;;4974077;28;20203;-71
2023/01/30 08:01:40;;;;;;;19.27;12.02;;;;;;;;;;4973857;28;20675;-71
2023/01/30 08:04:07;;;;;;;22.52;14.35;;;;;;;;;;4974166;28;20203;-71
2023/01/30 08:06:38;;;;;;;20.50;12.63;;;;;;;;;;4974085;28;20235;-72
2023/01/30 08:09:05;;;;;;;19.40;12.27;;;;;;;;;;4973795;28;20694;-72
2023/01/30 08:11:32;;;;;;;18.40;10.90;;;;;;;;;;4973795;28;20569;-72
2023/01/30 08:13:59;;;;;;;17.23;10.63;;;;;;;;;;4974261;28;20214;-72
2023/01/30 08:16:26;;;;;;;15.43;10.90;;;;;;;;;;4978474;28;20230;-71
2023/01/30 08:18:53;;;;;;;19.77;11.95;;;;;;;;;;4978022;28;20207;-71
2023/01/30 08:21:20;;;;;;;17.45;10.63;;;;;;;;;;4977962;28;20203;-71
2023/01/30 08:23:49;;;;;;;20.95;14.55;;;;;;;;;;4977776;28;20211;-72
2023/01/30 08:26:16;;;;;;;14.98;9.85;;;;;;;;;;4977219;28;20773;-71
2023/01/30 08:28:44;;;;;;;13.50;9.65;;;;;;;;;;4977657;28;20200;-71
2023/01/30 08:31:11;;;;;;;11.27;8.57;;;;;;;;;;4977500;28;20227;-71
2023/01/30 08:33:38;;;;;;;10.82;7.68;;;;;;;;;;4977248;28;20658;-71
2023/01/30 08:36:05;;;;;;;8.10;6.70;;;;;;;;;;4977322;28;20226;-71
2023/01/30 08:38:32;;;;;;;9.52;6.57;;;;;;;;;;4977173;28;20570;-71
2023/01/30 08:41:01;;;;;;;7.22;6.30;;;;;;;;;;4977433;28;20281;-72
2023/01/30 08:43:28;;;;;;;7.82;6.85;;;;;;;;;;4977326;28;20206;-72
2023/01/30 08:45:55;;;;;;;10.93;7.43;;;;;;;;;;4977228;28;20239;-72
2023/01/30 08:48:22;;;;;;;7.82;7.00;;;;;;;;;;4977382;28;20203;-72
2023/01/30 08:50:51;;;;;;;7.82;6.65;;;;;;;;;;4977473;28;20224;-72
2023/01/30 08:53:18;;;;;;;8.27;6.88;;;;;;;;;;4977155;28;20207;-72
2023/01/30 08:55:45;;;;;;;6.88;6.13;;;;;;;;;;4977106;28;20234;-71
2023/01/30 08:58:14;;;;;;;8.60;6.95;;;;;;;;;;4976932;28;20631;-71
2023/01/30 09:00:43;;;;;;;7.40;6.30;;;;;;;;;;4977063;28;20199;-71
2023/01/30 09:03:11;;;;;;;7.50;6.43;;;;;;;;;;4976713;28;20683;-71
2023/01/30 09:05:38;;;;;;;7.72;6.45;;;;;;;;;;4976836;28;20227;-71
2023/01/30 09:08:05;;;;;;;8.95;6.63;;;;;;;;;;4977136;28;20207;-71
2023/01/30 09:10:32;;;;;;;6.75;5.97;;;;;;;;;;4976722;28;20223;-71
2023/01/30 09:12:59;;;;;;;8.45;6.22;;;;;;;;;;4976803;28;20207;-72
2023/01/30 09:15:27;;;;;;;6.45;5.78;;;;;;;;;;4976638;28;20207;-72
2023/01/30 09:17:54;;;;;;;6.97;6.28;;;;;;;;;;4976663;28;20215;-72
2023/01/30 09:20:21;;;;;;;8.05;5.88;;;;;;;;;;4976616;28;20227;-72
2023/01/30 09:22:48;;;;;;;7.40;6.05;;;;;;;;;;4976683;28;20208;-72
2023/01/30 09:25:16;;;;;;;8.63;7.18;;;;;;;;;;4975944;28;20573;-71
2023/01/30 09:27:43;;;;;;;9.55;7.55;;;;;;;;;;4975716;28;20685;-71
2023/01/30 09:30:11;;;;;;;8.00;7.20;;;;;;;;;;4976027;28;20218;-71
2023/01/30 09:32:40;;;;;;;10.50;7.25;;;;;;;;;;4976407;28;20291;-71
2023/01/30 09:35:07;;;;;;;15.07;8.80;;;;;;;;;;4976288;28;20210;-71
2023/01/30 09:37:34;;;;;;;9.88;7.90;;;;;;;;;;4976171;28;20259;-71
2023/01/30 09:40:01;;;;;;;11.77;8.38;;;;;;;;;;4976304;28;20200;-72
2023/01/30 09:42:35;;;;;;;12.30;8.27;;;;;;;;;;4976242;28;20262;-72
2023/01/30 09:45:20;;;;;;;13.07;8.43;;;;;;;;;;4976452;28;20184;-72
2023/01/30 09:47:50;;;;;;;11.25;8.43;;;;;;;;;;4975535;28;20199;-72
2023/01/30 09:50:22;;;;;;;10.32;7.95;;;;;;;;;;4975952;28;20227;-72
2023/01/30 09:52:53;;;;;;;10.88;7.65;;;;;;;;;;4976565;28;20191;-72
2023/01/30 09:55:22;;;;;;;8.68;7.32;;;;;;;;;;4975717;28;20579;-72
2023/01/30 09:57:49;;;;;;;7.55;6.75;;;;;;;;;;4975839;28;20610;-72
2023/01/30 10:00:21;;;;;;;7.43;6.50;;;;;;;;;;4975901;28;20188;-72
2023/01/30 10:02:53;;;;;;;6.80;5.95;;;;;;;;;;4975842;28;20192;-72
2023/01/30 10:05:20;;;;;;;7.43;6.00;;;;;;;;;;4975516;28;20505;-72
2023/01/30 10:07:52;;;;;;;8.65;6.78;;;;;;;;;;4975447;28;20203;-72
2023/01/30 10:10:23;;;;;;;7.78;6.43;;;;;;;;;;4975971;28;20207;-72
2023/01/30 10:12:57;;;;;;;8.65;6.15;;;;;;;;;;4975756;28;20191;-72
2023/01/30 10:15:28;;;;;;;6.60;5.68;;;;;;;;;;4976568;28;20191;-71
2023/01/30 10:18:05;;;;;;;8.60;6.47;;;;;;;;;;4976425;28;20188;-71
2023/01/30 10:20:38;;;;;;;7.40;5.80;;;;;;;;;;4977087;28;20183;-71
2023/01/30 10:23:15;;;;;;;8.43;5.70;;;;;;;;;;4976298;28;20191;-71
2023/01/30 10:25:44;;;;;;;7.05;6.03;;;;;;;;;;4981212;28;20223;-71
2023/01/30 10:28:16;;;;;;;6.70;6.00;;;;;;;;;;4976847;28;20200;-71
2023/01/30 10:30:45;;;;;;;7.45;5.82;;;;;;;;;;4976259;28;20207;-71
2023/01/30 10:33:16;;;;;;;8.80;6.63;;;;;;;;;;4975074;28;20670;-71
2023/01/30 10:35:43;;;;;;;7.35;6.57;;;;;;;;;;4975278;28;20234;-71
2023/01/30 10:38:17;;;;;;;7.78;6.75;;;;;;;;;;4975359;28;20302;-71
2023/01/30 10:40:46;;;;;;;8.45;6.70;;;;;;;;;;4975252;28;20183;-71
2023/01/30 10:43:15;;;;;;;9.32;6.78;;;;;;;;;;4975182;28;20230;-71
2023/01/30 10:45:49;;;;;;;9.48;7.53;;;;;;;;;;4975075;28;20227;-71
2023/01/30 10:48:34;;;;;;;11.18;7.55;;;;;;;;;;4975337;28;20297;-71
2023/01/30 10:51:05;;;;;;;7.53;6.80;;;;;;;;;;4975298;28;20211;-71
2023/01/30 10:53:35;;;;;;;8.38;7.30;;;;;;;;;;4975379;28;20184;-71
2023/01/30 10:56:06;;;;;;;10.85;6.80;;;;;;;;;;4975072;28;20363;-71
2023/01/30 10:58:37;;;;;;;7.32;6.63;;;;;;;;;;4976831;28;20211;-71
2023/01/30 11:01:07;;;;;;;6.63;5.93;;;;;;;;;;4980395;28;20188;-71
2023/01/30 11:03:38;;;;;;;7.25;6.28;;;;;;;;;;4975574;28;20202;-71
2023/01/30 11:06:08;;;;;;;7.82;6.60;;;;;;;;;;4974689;28;20231;-71
2023/01/30 11:08:35;;;;;;;6.70;6.00;;;;;;;;;;4975134;28;20207;-71
2023/01/30 11:11:21;;;;;;;7.78;6.93;;;;;;;;;;4974607;28;20231;-71
2023/01/30 11:13:48;;;;;;;6.80;6.20;;;;;;;;;;4974585;28;20249;-72
2023/01/30 11:16:16;;;;;;;8.85;6.50;;;;;;;;;;4974591;28;20229;-71
2023/01/30 11:18:47;;;;;;;8.45;5.97;;;;;;;;;;4974460;28;20210;-71
2023/01/30 11:21:19;;;;;;;8.93;6.60;;;;;;;;;;4974659;28;20210;-71
2023/01/30 11:23:46;;;;;;;8.07;6.78;;;;;;;;;;4974518;28;20191;-71
2023/01/30 11:26:19;;;;;;;9.40;7.20;;;;;;;;;;4974031;28;20590;-71
2023/01/30 11:28:46;;;;;;;8.50;6.97;;;;;;;;;;4974065;28;20636;-71
2023/01/30 11:31:20;;;;;;;9.10;6.68;;;;;;;;;;4974360;28;20227;-71
2023/01/30 11:33:59;;;;;;;7.45;6.72;;;;;;;;;;4974529;28;20210;-71
2023/01/30 11:36:28;;;;;;;7.97;6.63;;;;;;;;;;4974117;28;20226;-71
2023/01/30 11:38:57;;;;;;;10.07;7.25;;;;;;;;;;4974946;28;20207;-71
2023/01/30 11:41:24;;;;;;;7.80;6.65;;;;;;;;;;4974246;28;20207;-71
2023/01/30 11:43:51;;;;;;;7.90;6.53;;;;;;;;;;4974956;28;20555;-69
2023/01/30 11:46:20;;;;;;;10.27;8.07;;;;;;;;;;4974080;28;20223;-70
2023/01/30 11:48:52;;;;;;;8.32;7.10;;;;;;;;;;4973460;28;20207;-72
2023/01/30 11:51:22;;;;;;;11.45;8.05;;;;;;;;;;4973873;28;20207;-73
2023/01/30 11:53:51;;;;;;;10.10;7.35;;;;;;;;;;4974649;28;20199;-71
2023/01/30 11:56:21;;;;;;;8.98;7.00;;;;;;;;;;4975522;28;20227;-70
2023/01/30 11:58:56;;;;;;;7.65;6.85;;;;;;;;;;4980879;28;20242;-70
2023/01/30 12:01:26;;;;;;;8.55;6.57;;;;;;;;;;4983464;28;20187;-70
2023/01/30 12:03:54;;;;;;;10.23;7.63;;;;;;;;;;4984090;28;20210;-70
2023/01/30 12:06:24;;;;;;;9.60;7.72;;;;;;;;;;4982948;28;20224;-70
2023/01/30 12:08:52;;;;;;;9.23;7.72;;;;;;;;;;4981558;28;20207;-71
2023/01/30 12:11:27;;;;;;;15.23;8.48;;;;;;;;;;4980967;28;20269;-71
2023/01/30 12:13:55;;;;;;;11.88;8.70;;;;;;;;;;4981124;28;20634;-70
2023/01/30 12:16:24;;;;;;;11.20;8.18;;;;;;;;;;4979494;28;20227;-70
2023/01/30 12:18:55;;;;;;;10.13;7.70;;;;;;;;;;4979338;28;20207;-70
2023/01/30 12:21:28;;;;;;;13.88;7.88;;;;;;;;;;4978853;28;20262;-70
2023/01/30 12:23:59;;;;;;;8.90;7.47;;;;;;;;;;4978621;28;20195;-70
2023/01/30 12:26:28;;;;;;;8.10;7.20;;;;;;;;;;4978359;28;20223;-71
2023/01/30 12:28:57;;;;;;;11.82;8.15;;;;;;;;;;4978400;28;20666;-70
2023/01/30 12:31:26;;;;;;;14.82;8.73;;;;;;;;;;4977615;28;20721;-70
2023/01/30 12:33:55;;;;;;;7.88;7.05;;;;;;;;;;4979028;28;20203;-70
2023/01/30 12:36:29;;;;;;;10.95;7.35;;;;;;;;;;4977740;28;20220;-70
2023/01/30 12:39:06;;;;;;;8.18;7.03;;;;;;;;;;4979019;28;20194;-70
2023/01/30 12:41:39;;;;;;;8.68;6.55;;;;;;;;;;4978220;28;20183;-71
2023/01/30 12:44:21;;;;;;;8.95;7.35;;;;;;;;;;4978030;28;20226;-70
2023/01/30 12:46:57;;;;;;;8.57;6.78;;;;;;;;;;4976432;28;20591;-70
2023/01/30 12:49:35;;;;;;;9.23;6.88;;;;;;;;;;4978036;28;20323;-70
2023/01/30 12:52:09;;;;;;;8.68;6.80;;;;;;;;;;4976877;28;20675;-70
2023/01/30 12:54:41;;;;;;;8.82;6.95;;;;;;;;;;4977684;28;20188;-70
2023/01/30 12:57:15;;;;;;;10.10;7.10;;;;;;;;;;4978421;28;20227;-70
2023/01/30 12:59:49;;;;;;;10.13;7.65;;;;;;;;;;4977654;28;20697;-70
2023/01/30 13:02:23;;;;;;;9.95;7.47;;;;;;;;;;4982221;28;20183;-69
2023/01/30 13:04:56;;;;;;;8.23;6.93;;;;;;;;;;4981507;28;20187;-70
2023/01/30 13:07:27;;;;;;;10.63;7.35;;;;;;;;;;4981281;28;20219;-70
2023/01/30 13:10:01;;;;;;;9.65;6.95;;;;;;;;;;4981388;28;20187;-70
2023/01/30 13:12:34;;;;;;;9.35;6.88;;;;;;;;;;4980723;28;20295;-70
2023/01/30 13:15:03;;;;;;;9.93;7.45;;;;;;;;;;4981910;28;20250;-70
2023/01/30 13:17:38;;;;;;;11.20;8.30;;;;;;;;;;4981198;28;20726;-69
2023/01/30 13:20:08;;;;;;;8.77;6.85;;;;;;;;;;4981092;28;20190;-69
2023/01/30 13:22:39;;;;;;;9.48;7.70;;;;;;;;;;4980998;28;20187;-69
2023/01/30 13:25:15;;;;;;;7.93;6.88;;;;;;;;;;4979990;28;20191;-69
2023/01/30 13:27:45;;;;;;;9.25;7.00;;;;;;;;;;4979940;28;20199;-70
2023/01/30 14:11:49;;;;;;;8.45;5.57;;;;;;;;;;5253748;23;20289;-70
2023/01/30 14:14:28;;;;;;;5.80;5.10;;;;;;;;;;4980363;28;20278;-70
2023/01/30 14:16:56;;;;;;;8.45;5.72;;;;;;;;;;4981537;28;20753;-70
2023/01/30 14:19:41;;;;;;;7.22;5.40;;;;;;;;;;4980504;28;20235;-70
2023/01/30 14:22:20;;;;;;;5.55;5.05;;;;;;;;;;4967420;28;20282;-70
2023/01/30 14:25:02;;;;;;;6.10;5.10;;;;;;;;;;4976224;28;20214;-70
2023/01/30 14:27:31;;;;;;;5.95;4.50;;;;;;;;;;4998243;23;20234;-65
2023/01/30 14:29:58;;;;;;;6.05;5.10;;;;;;;;;;4977245;28;20207;-67
2023/01/30 14:32:36;;;;;;;4.40;4.00;;;;;;;;;;4976167;28;20215;-67
2023/01/30 14:35:20;;;;;;;4.78;4.18;;;;;;;;;;4976033;28;20246;-68
2023/01/30 14:37:49;;;;;;;4.32;3.92;;;;;;;;;;4956761;29;20188;-68
2023/01/30 14:40:37;;;;;;;4.72;3.63;;;1.60;99.90;;;;;;4956727;29;20204;-68
2023/01/30 14:43:41;;;;;;;3.35;3.15;;;1.90;99.90;;;;;;4956247;29;20695;-69
2023/01/30 14:46:45;;;;;;;3.22;2.78;;;1.90;99.90;;;;;;4956817;29;20234;-69
2023/01/30 14:49:30;;;;;;;5.57;2.50;;;1.90;99.90;;;;;;4956196;29;20670;-68
2023/01/30 14:51:57;;;;;;;2.17;2.08;;;1.90;99.90;;;;;;4956416;29;20228;-69
2023/01/30 14:54:32;;;;;;;1.90;1.80;;;1.80;99.90;;;;;;4956223;29;20204;-68
2023/01/30 14:57:01;;;;;;;2.42;2.33;;;1.80;99.90;;;;;;4956355;29;20227;-68
2023/01/30 14:59:31;;;;;;;2.13;2.03;;;1.70;99.90;;;;;;4956313;29;20208;-68
2023/01/30 15:02:06;;;;;;;2.17;2.08;;;1.70;99.90;;;;;;4956291;29;20184;-68
2023/01/30 15:04:40;;;;;;;2.17;2.08;;;1.60;99.90;;;;;;4956157;29;20188;-68
2023/01/30 15:07:11;;;;;;;2.60;2.40;;;1.60;99.90;;;;;;4956102;29;20279;-68
2023/01/30 15:09:41;;;;;;;3.00;2.80;;;1.60;99.90;;;;;;4955966;29;20580;-68
2023/01/30 15:12:31;;;;;;;2.92;2.42;;;1.50;99.90;;;;;;4956156;29;20227;-69
2023/01/30 15:15:13;;;;;;;2.35;2.25;;;1.50;99.90;;;;;;4914522;29;20208;-68
2023/01/30 15:17:52;;;;;;;1.98;1.88;;;1.40;99.90;;;;;;4956200;29;20244;-69
2023/01/30 15:20:28;;;;;;;2.83;2.63;;;1.30;99.90;;;;;;4955838;29;20643;-69
2023/01/30 15:23:14;;;;;;;2.35;2.25;;;1.30;99.90;;;;;;4955964;28;20555;-68
2023/01/30 15:26:00;;;;;;;2.33;2.15;;;1.30;99.90;;;;;;4955755;29;20254;-68
2023/01/30 15:28:34;;;;;;;2.55;2.40;;;1.30;99.90;;;;;;4956039;29;20192;-67
2023/01/30 15:31:09;;;;;;;2.63;2.42;;;1.20;99.90;;;;;;4955990;29;20188;-67
2023/01/30 15:33:45;;;;;;;2.60;2.50;;;1.20;99.90;;;;;;4955776;29;20192;-67
2023/01/30 15:36:23;;;;;;;2.47;2.28;;;1.20;99.90;;;;;;4955689;29;20259;-68
2023/01/30 15:38:56;;;;;;;2.63;2.42;;;1.20;99.90;;;;;;4956091;29;20192;-67
2023/01/30 15:41:24;;;;;;;2.08;1.98;;;1.20;99.90;;;;;;4956142;29;20243;-67
2023/01/30 15:44:09;;;;;;;2.22;2.13;;;1.10;99.90;;;;;;4955598;29;20214;-68
2023/01/30 15:46:44;;;;;;;1.90;1.83;;;1.10;99.90;;;;;;4955469;29;20730;-69
2023/01/30 15:49:44;;;;;;;2.10;2.00;;;1.10;99.90;;;;;;4955769;29;20187;-68
2023/01/30 15:52:15;;;;;;;2.42;2.33;;;1.10;99.90;;;;;;4955863;29;20204;-70
2023/01/30 15:54:47;;;;;;;2.10;2.00;;;1.10;99.90;;;;;;4955946;29;20196;-69
2023/01/30 15:57:21;;;;;;;2.08;1.98;;;1.10;99.90;;;;;;4957414;29;20571;-68
2023/01/30 15:59:48;;;;;;;2.85;2.08;;;1.10;99.90;;;;;;4956388;29;20200;-69
2023/01/30 16:02:19;;;;;;;2.80;2.05;;;1.00;99.90;;;;;;4956799;29;20208;-70
2023/01/30 16:04:48;;;;;;;2.40;2.30;;;1.10;99.90;;;;;;4955473;29;20192;-69
2023/01/30 16:07:16;;;;;;;3.83;3.53;;;1.10;99.90;;;;;;4955375;29;20235;-69
2023/01/30 16:09:53;;;;;;;2.10;2.00;;;1.10;99.90;;;;;;4955713;29;20229;-69
2023/01/30 16:12:24;;;;;;;2.10;2.05;;;1.10;99.90;;;;;;4955937;29;20208;-70
2023/01/30 16:14:51;;;;;;;2.47;2.38;;;1.00;99.90;;;;;;4955688;29;20238;-69
2023/01/30 16:17:19;;;;;;;4.82;3.70;;;;;;;;;;4955968;29;20223;-67
2023/01/30 16:19:48;;;;;;;3.35;3.15;;;;;;;;;;4955847;29;20211;-67
2023/01/30 16:22:17;;;;;;;2.30;2.20;;;;;;;;;;4957152;29;20208;-67
2023/01/30 16:24:46;;;;;;;1.63;1.63;;;;;;;;;;4956492;29;20211;-68
2023/01/30 16:27:16;;;;;;;2.00;1.90;;;;;;;;;;4955201;29;20240;-67
2023/01/30 16:29:49;;;;;;;2.03;1.92;;;;;;;;;;4955583;29;20192;-67
2023/01/30 16:32:18;;;;;;;1.90;1.80;;;;;;;;;;4955698;29;20215;-67
2023/01/30 16:34:45;;;;;;;1.70;1.60;;;;;;;;;;4955713;28;20208;-67
2023/01/30 16:37:25;;;;;;;2.08;1.98;;;;;;;;;;4958792;29;20235;-67
2023/01/30 16:40:05;;;;;;;1.67;1.67;;;;;;;;;;4960197;29;20192;-67
2023/01/30 16:42:33;;;;;;;1.80;1.75;;;;;;;;;;4962411;29;20223;-67
2023/01/30 16:45:15;;;;;;;1.60;1.60;;;;;;;;;;4961742;29;20203;-67
2023/01/30 16:47:42;;;;;;;4.93;1.98;;;;;;;;;;4962705;29;20399;-67
2023/01/30 16:50:17;;;;;;;2.38;2.28;;;;;;;;;;4962693;29;20199;-66
2023/01/30 16:52:47;;;;;;;2.10;2.00;;;;;;;;;;4961976;29;20232;-66
2023/01/30 16:55:20;;;;;;;1.73;1.73;;;;;;;;;;4962211;29;20214;-67
2023/01/30 16:57:52;;;;;;;2.47;2.35;;;;;;;;;;4963370;29;20192;-71
2023/01/30 17:00:21;;;;;;;2.30;2.20;;;;;;;;;;4963724;29;20610;-71
2023/01/30 17:02:50;;;;;;;2.45;2.15;;;;;;;;;;4962507;29;20200;-68
2023/01/30 17:05:19;;;;;;;2.47;2.30;;;;;;;;;;4958791;29;20208;-69
2023/01/30 17:07:48;;;;;;;1.90;1.83;;;;;;;;;;4958840;29;20278;-71
2023/01/30 17:10:35;;;;;;;1.58;1.58;;;;;;;;;;4958961;29;20207;-71
2023/01/30 17:13:02;;;;;;;3.42;2.80;;;;;;;;;;4958551;29;20224;-71
2023/01/30 17:15:30;;;;;;;2.28;2.17;;;;;;;;;;4958579;29;20200;-71
2023/01/30 17:17:57;;;;;;;2.47;2.28;;;;;;;;;;4959502;29;20215;-71
2023/01/30 17:20:25;;;;;;;2.17;2.08;;;;;;;;;;4959449;29;20208;-71
2023/01/30 17:22:56;;;;;;;2.75;2.60;;;;;;;;;;4959124;29;20211;-72
2023/01/30 17:25:27;;;;;;;2.50;2.30;;;;;;;;;;4958795;29;20207;-72
2023/01/30 17:27:55;;;;;;;2.50;2.40;;;;;;;;;;4958787;29;20589;-72
2023/01/30 17:30:22;;;;;;;2.17;2.08;;;;;;;;;;4958756;29;20203;-72
2023/01/30 17:32:49;;;;;;;1.77;1.77;;;;;;;;;;4958830;29;20251;-71
2023/01/30 17:35:16;;;;;;;1.67;1.58;;;;;;;;;;4967575;29;20215;-71
2023/01/30 17:37:43;;;;;;;1.70;1.60;;;;;;;;;;4972575;29;20208;-71
2023/01/30 17:40:16;;;;;;;1.75;1.65;;;;;;;;;;4959775;29;20207;-71
2023/01/30 17:42:43;;;;;;;2.40;2.17;;;;;;;;;;4959422;29;20231;-70
2023/01/30 17:45:10;;;;;;;2.03;2.00;;;;;;;;;;4958670;29;20208;-71
2023/01/30 17:47:37;;;;;;;2.15;2.08;;;;;;;;;;4956859;28;20224;-71
2023/01/30 17:50:05;;;;;;;2.25;2.15;;;;;;;;;;4958026;29;20200;-71
2023/01/30 17:52:32;;;;;;;1.98;1.88;;;;;;;;;;4958125;29;20213;-71
2023/01/30 17:54:59;;;;;;;2.25;2.15;;;;;;;;;;4958861;29;20188;-71
2023/01/30 17:57:27;;;;;;;2.15;1.80;;;;;;;;;;4958222;29;20599;-72
2023/01/30 17:59:55;;;;;;;2.13;2.10;;;;;;;;;;4957929;29;20208;-69
2023/01/30 18:02:22;;;;;;;3.00;2.03;;;;;;;;;;4957615;29;20238;-69
2023/01/30 18:04:49;;;;;;;2.40;2.30;;;;;;;;;;4957781;29;20246;-70
2023/01/30 18:07:16;;;;;;;2.50;2.30;;;;;;;;;;4957835;29;20223;-70
2023/01/30 18:09:43;;;;;;;2.33;2.22;;;;;;;;;;4957545;29;20197;-71
2023/01/30 18:12:10;;;;;;;3.22;2.50;;;;;;;;;;4957417;29;20283;-70
2023/01/30 18:14:38;;;;;;;3.92;3.60;;;;;;;;;;4957509;29;20305;-71
2023/01/30 18:17:05;;;;;;;3.92;3.63;;;;;;;;;;4957848;29;20714;-71
2023/01/30 18:19:32;;;;;;;3.80;3.60;;;;;;;;;;4957913;29;20698;-71
2023/01/30 18:22:00;;;;;;;4.30;3.70;;;;;;;;;;4958003;29;20215;-70
2023/01/30 18:24:27;;;;;;;5.05;4.25;;;;;;;;;;4957775;29;20204;-70
2023/01/30 18:26:54;;;;;;;6.63;4.40;;;;;;;;;;4956902;29;20235;-70
2023/01/30 18:29:21;;;;;;;8.73;5.07;;;;;;;;;;4957247;29;20200;-70
2023/01/30 18:31:50;;;;;;;9.43;3.88;;;;;;;;;;4957014;29;20746;-70
2023/01/30 18:34:17;;;;;;;7.90;4.55;;;;;;;;;;4956719;29;20204;-70
2023/01/30 18:36:44;;;;;;;5.07;3.78;;;;;;;;;;4956869;29;20227;-70
2023/01/30 18:39:12;;;;;;;3.55;3.22;;;;;;;;;;4956795;29;20214;-70
2023/01/30 18:41:40;;;;;;;3.80;3.50;;;;;;;;;;4956749;29;20210;-70
2023/01/30 18:44:07;;;;;;;4.95;4.35;;;;;;;;;;4956708;29;20201;-70
2023/01/30 18:46:34;;;;;;;5.10;4.60;;;;;;;;;;4956718;29;20239;-70
2023/01/30 18:49:03;;;;;;;3.40;3.15;;;;;;;;;;4956738;29;20204;-70
2023/01/30 18:51:30;;;;;;;3.40;3.20;;;;;;;;;;4956351;29;20668;-70
2023/01/30 18:53:58;;;;;;;2.60;2.50;;;;;;;;;;4956805;29;20208;-70
2023/01/30 18:56:26;;;;;;;3.53;2.75;;;;;;;;;;4956505;29;20220;-70
2023/01/30 18:58:55;;;;;;;2.17;2.08;;;;;;;;;;4956526;28;20207;-71
2023/01/30 19:01:22;;;;;;;2.08;1.98;;;;;;;;;;4957265;29;20263;-71
2023/01/30 19:03:49;;;;;;;2.00;1.90;;;;;;;;;;4956732;29;20200;-71
2023/01/30 19:06:18;;;;;;;2.20;2.10;;;;;;;;;;4956301;29;20228;-70
2023/01/30 19:08:45;;;;;;;2.00;1.90;;;;;;;;;;4956893;29;20200;-70
2023/01/30 19:13:58;;;;;;;2.22;2.13;;;;;;;;;;4955834;29;20647;-72
2023/01/30 19:16:26;;;;;;;2.20;2.10;;;;;;;;;;4955949;29;20220;-71
2023/01/30 19:18:53;;;;;;;1.90;1.88;;;;;;;;;;4955707;29;20675;-72
2023/01/30 19:21:22;;;;;;;3.20;2.80;;;;;;;;;;4956050;29;20211;-72
2023/01/30 19:23:49;;;;;;;4.50;4.20;;;;;;;;;;4956318;29;20204;-71
2023/01/30 19:26:17;;;;;;;3.72;3.53;;;;;;;;;;4955745;29;20652;-71
2023/01/30 19:28:45;;;;;;;3.28;3.08;;;;;;;;;;4956086;29;20207;-71
2023/01/30 19:31:13;;;;;;;3.13;2.97;;;;;;;;;;4955944;29;20203;-71
2023/01/30 19:33:40;;;;;;;2.67;2.53;;;;;;;;;;4955661;29;20719;-68
2023/01/30 19:36:10;;;;;;;4.43;4.07;;;;;;;;;;4956384;29;20223;-70
2023/01/30 19:38:39;;;;;;;4.55;4.15;;;;;;;;;;4960344;29;20224;-69
2023/01/30 19:41:10;;;;;;;6.15;4.78;;;;;;;;;;4963109;29;20575;-69
2023/01/30 19:43:39;;;;;;;3.55;3.25;;;;;;;;;;4960823;29;20546;-69
2023/01/30 19:46:06;;;;;;;3.70;3.40;;;;;;;;;;4957166;29;20220;-70
2023/01/30 19:48:34;;;;;;;6.60;5.30;;;;;;;;;;4955495;29;20718;-68
2023/01/30 19:51:12;;;;;;;5.05;4.55;;;;;;;;;;4955666;29;20200;-69
2023/01/30 19:53:40;;;;;;;5.38;4.25;;;;;;;;;;4955522;29;20208;-68
2023/01/30 19:56:08;;;;;;;4.28;3.90;;;;;;;;;;4955426;29;20653;-69
2023/01/30 19:58:35;;;;;;;3.10;2.80;;;;;;;;;;4955188;29;20571;-68
2023/01/30 20:01:05;;;;;;;2.97;2.80;;;;;;;;;;4955488;29;20254;-68
2023/01/30 20:03:32;;;;;;;1.92;1.83;;;;;;;;;;4955641;29;20203;-68
2023/01/30 20:06:06;;;;;;;3.17;2.97;;;;;;;;;;4955540;29;20224;-68
2023/01/30 20:08:33;;;;;;;3.08;2.88;;;;;;;;;;4955565;29;20561;-68
2023/01/30 20:11:05;;;;;;;5.38;2.50;;;;;;;;;;4957272;28;20204;-68
2023/01/30 20:13:34;;;;;;;3.08;2.80;;;;;;;;;;4959395;29;20219;-68
2023/01/30 20:16:03;;;;;;;2.90;2.70;;;;;;;;;;4959466;29;20254;-68
2023/01/30 20:18:30;;;;;;;3.00;2.80;;;;;;;;;;4959866;29;20210;-68
2023/01/30 20:20:57;;;;;;;3.05;2.85;;;;;;;;;;4959233;29;20570;-68